createdAt,value
2018-08-18T00:01:11.773Z,88.60
2018-08-18T00:03:39.164Z,88.60
2018-08-18T00:06:06.724Z,89.80
2018-08-18T00:08:34.157Z,88.70
2018-08-18T00:11:02.893Z,88.40
2018-08-18T00:13:39.763Z,89.70
2018-08-18T00:16:07.252Z,89.80
2018-08-18T00:18:34.665Z,89.70
2018-08-18T00:21:02.127Z,89.60
2018-08-18T00:23:29.612Z,90.00
2018-08-18T00:25:57.081Z,90.10
2018-08-18T00:28:25.301Z,90.50
2018-08-18T00:30:53.183Z,90.20
2018-08-18T00:33:20.569Z,90.40
2018-08-18T00:35:48.160Z,90.10
2018-08-18T00:38:15.724Z,88.70
2018-08-18T00:40:43.149Z,88.20
2018-08-18T00:43:10.665Z,86.70
2018-08-18T00:45:38.085Z,86.40
2018-08-18T00:48:05.483Z,86.40
2018-08-18T00:50:40.099Z,86.40
2018-08-18T00:53:09.654Z,86.00
2018-08-18T00:55:37.553Z,85.90
2018-08-18T00:58:07.345Z,86.50
2018-08-18T01:00:34.830Z,86.20
2018-08-18T01:03:02.297Z,86.30
2018-08-18T01:05:29.701Z,86.30
2018-08-18T01:07:57.196Z,86.40
2018-08-18T01:10:24.665Z,86.00
2018-08-18T01:12:52.176Z,86.10
2018-08-18T01:15:25.160Z,86.00
2018-08-18T01:17:52.638Z,86.10
2018-08-18T01:20:20.076Z,86.40
2018-08-18T01:22:55.839Z,86.00
2018-08-18T01:25:24.072Z,85.70
2018-08-18T01:27:52.399Z,86.60
2018-08-18T01:30:19.871Z,86.60
2018-08-18T01:32:47.419Z,86.60
2018-08-18T01:35:14.805Z,85.90
2018-08-18T01:37:42.360Z,86.40
2018-08-18T01:40:09.888Z,87.40
2018-08-18T01:42:37.378Z,87.70
2018-08-18T01:45:04.860Z,88.10
2018-08-18T01:47:32.444Z,87.90
2018-08-18T01:50:04.428Z,88.20
2018-08-18T01:52:32.370Z,88.40
2018-08-18T01:54:59.848Z,89.70
2018-08-18T01:57:27.279Z,89.20
2018-08-18T01:59:54.803Z,89.20
2018-08-18T02:02:25.837Z,89.10
2018-08-18T02:04:53.868Z,88.90
2018-08-18T02:07:24.623Z,88.00
2018-08-18T02:09:52.272Z,88.70
2018-08-18T02:12:19.805Z,88.90
2018-08-18T02:14:47.165Z,88.50
2018-08-18T02:17:19.266Z,87.90
2018-08-18T02:19:47.115Z,89.10
2018-08-18T02:22:14.626Z,89.40
2018-08-18T02:24:42.840Z,88.50
2018-08-18T02:27:10.469Z,88.80
2018-08-18T02:29:38.023Z,89.00
2018-08-18T02:32:13.259Z,89.30
2018-08-18T02:34:40.692Z,89.60
2018-08-18T02:37:08.283Z,90.20
2018-08-18T02:39:35.772Z,90.00
2018-08-18T02:42:03.263Z,89.60
2018-08-18T02:44:30.676Z,89.40
2018-08-18T02:46:58.078Z,88.60
2018-08-18T02:49:26.981Z,87.50
2018-08-18T02:51:54.471Z,87.70
2018-08-18T02:54:21.851Z,88.80
2018-08-18T02:56:49.325Z,88.80
2018-08-18T02:59:16.782Z,89.40
2018-08-18T03:01:44.659Z,87.90
2018-08-18T03:04:13.222Z,87.80
2018-08-18T03:06:40.866Z,88.30
2018-08-18T03:09:09.991Z,89.30
2018-08-18T03:11:39.741Z,89.70
2018-08-18T03:14:07.463Z,89.90
2018-08-18T03:16:36.542Z,88.80
2018-08-18T03:19:04.025Z,89.30
2018-08-18T03:21:37.022Z,88.60
2018-08-18T03:24:22.760Z,90.00
2018-08-18T03:26:52.857Z,89.60
2018-08-18T03:29:21.460Z,89.40
2018-08-18T03:31:49.245Z,89.60
2018-08-18T03:34:17.047Z,89.50
2018-08-18T03:36:49.127Z,89.80
2018-08-18T03:39:24.963Z,90.10
2018-08-18T03:41:53.848Z,90.10
2018-08-18T03:44:21.432Z,90.20
2018-08-18T03:46:48.976Z,90.00
2018-08-18T03:49:16.497Z,89.00
2018-08-18T03:51:45.133Z,89.30
2018-08-18T03:54:13.173Z,90.20
2018-08-18T03:56:40.985Z,90.00
2018-08-18T03:59:08.516Z,89.70
2018-08-18T04:01:48.348Z,89.40
2018-08-18T04:04:16.616Z,90.00
2018-08-18T04:06:45.372Z,90.20
2018-08-18T04:09:17.321Z,90.70
2018-08-18T04:11:44.774Z,89.90
2018-08-18T04:14:12.243Z,89.50
2018-08-18T04:16:44.888Z,89.40
2018-08-18T04:19:12.453Z,89.70
2018-08-18T04:21:39.935Z,89.90
2018-08-18T04:24:07.387Z,90.50
2018-08-18T04:26:34.907Z,90.30
2018-08-18T04:29:02.367Z,90.50
2018-08-18T04:31:30.575Z,90.70
2018-08-18T04:33:59.280Z,91.00
2018-08-18T04:36:26.766Z,90.30
2018-08-18T04:38:54.220Z,90.10
2018-08-18T04:41:22.008Z,90.30
2018-08-18T04:43:49.687Z,90.50
2018-08-18T04:46:17.098Z,90.40
2018-08-18T04:48:44.585Z,90.40
2018-08-18T04:51:12.049Z,90.40
2018-08-18T04:53:39.446Z,90.40
2018-08-18T04:56:06.993Z,90.40
2018-08-18T04:58:34.427Z,90.70
2018-08-18T05:01:01.894Z,90.90
2018-08-18T05:03:29.328Z,91.00
2018-08-18T05:05:56.751Z,91.60
2018-08-18T05:08:24.297Z,91.20
2018-08-18T05:10:51.688Z,91.30
2018-08-18T05:13:19.230Z,91.90
2018-08-18T05:15:46.730Z,91.70
2018-08-18T05:18:14.264Z,91.20
2018-08-18T05:20:42.272Z,91.00
2018-08-18T05:23:19.947Z,91.10
2018-08-18T05:25:49.468Z,90.40
2018-08-18T05:28:16.987Z,90.30
2018-08-18T05:30:44.427Z,90.00
2018-08-18T05:33:11.919Z,90.50
2018-08-18T05:35:39.433Z,90.20
2018-08-18T05:38:37.380Z,89.70
2018-08-18T05:41:04.878Z,89.70
2018-08-18T05:43:36.254Z,90.30
2018-08-18T05:46:10.582Z,90.50
2018-08-18T05:48:38.049Z,90.50
2018-08-18T05:51:05.544Z,90.50
2018-08-18T05:53:34.071Z,90.20
2018-08-18T05:56:02.279Z,90.30
2018-08-18T05:58:45.742Z,90.10
2018-08-18T06:01:24.622Z,90.00
2018-08-18T06:03:57.060Z,88.60
2018-08-18T06:06:24.899Z,89.10
2018-08-18T06:08:52.351Z,89.20
2018-08-18T06:11:19.727Z,89.10
2018-08-18T06:13:47.225Z,89.00
2018-08-18T06:16:14.614Z,90.00
2018-08-18T06:18:41.959Z,90.00
2018-08-18T06:21:16.427Z,89.10
2018-08-18T06:23:49.397Z,88.40
2018-08-18T06:26:22.247Z,87.60
2018-08-18T06:28:52.011Z,87.10
2018-08-18T06:31:20.268Z,87.40
2018-08-18T06:33:47.804Z,88.30
2018-08-18T06:36:15.322Z,86.50
2018-08-18T06:51:47.956Z,86.90
2018-08-18T06:54:18.754Z,85.10
2018-08-18T06:56:47.089Z,84.40
2018-08-18T06:59:14.590Z,85.40
2018-08-18T07:01:42.064Z,84.20
2018-08-18T07:04:26.211Z,83.80
2018-08-18T07:06:53.628Z,83.50
2018-08-18T07:09:21.004Z,83.60
2018-08-18T07:11:48.463Z,83.90
2018-08-18T07:14:22.356Z,82.40
2018-08-18T07:16:50.042Z,82.60
2018-08-18T07:19:17.652Z,82.50
2018-08-18T07:21:45.085Z,82.20
2018-08-18T07:24:12.499Z,82.50
2018-08-18T07:26:40.025Z,81.70
2018-08-18T07:29:07.579Z,81.40
2018-08-18T07:31:34.950Z,81.80
2018-08-18T07:34:02.422Z,79.60
2018-08-18T07:36:30.056Z,75.30
2018-08-18T07:39:03.679Z,74.80
2018-08-18T07:41:31.280Z,76.60
2018-08-18T07:43:58.807Z,75.60
2018-08-18T07:46:26.352Z,74.30
2018-08-18T07:48:53.917Z,75.20
2018-08-18T07:51:21.867Z,75.40
2018-08-18T07:53:49.323Z,71.80
2018-08-18T07:56:17.593Z,72.30
2018-08-18T07:58:46.024Z,72.10
2018-08-18T08:01:13.498Z,73.30
2018-08-18T08:03:40.944Z,73.40
2018-08-18T08:06:08.595Z,73.30
2018-08-18T08:08:41.886Z,72.50
2018-08-18T08:11:12.273Z,71.60
2018-08-18T08:13:39.739Z,70.10
2018-08-18T08:16:07.227Z,69.30
2018-08-18T08:18:34.611Z,69.70
2018-08-18T08:21:02.028Z,70.70
2018-08-18T08:23:29.583Z,70.20
2018-08-18T08:25:57.676Z,68.70
2018-08-18T08:28:25.144Z,68.60
2018-08-18T08:30:52.641Z,70.20
2018-08-18T08:33:31.417Z,68.60
2018-08-18T08:35:58.852Z,68.10
2018-08-18T08:38:31.818Z,69.00
2018-08-18T08:40:59.336Z,68.60
2018-08-18T08:43:34.161Z,69.40
2018-08-18T08:46:01.633Z,68.60
2018-08-18T08:48:30.413Z,66.60
2018-08-18T08:50:57.873Z,66.10
2018-08-18T08:53:25.353Z,66.10
2018-08-18T08:55:52.817Z,67.50
2018-08-18T08:58:20.282Z,66.30
2018-08-18T09:00:47.714Z,65.80
2018-08-18T09:03:15.254Z,65.40
2018-08-18T09:05:42.716Z,65.70
2018-08-18T09:08:10.165Z,66.40
2018-08-18T09:10:37.710Z,65.50
2018-08-18T09:13:05.456Z,66.00
2018-08-18T09:15:32.895Z,65.90
2018-08-18T09:18:00.359Z,65.80
2018-08-18T09:20:29.805Z,64.60
2018-08-18T09:23:00.218Z,63.10
2018-08-18T09:25:29.086Z,63.70
2018-08-18T09:27:57.781Z,62.80
2018-08-18T09:30:27.356Z,63.30
2018-08-18T09:32:56.927Z,62.90
2018-08-18T09:35:24.433Z,62.70
2018-08-18T09:37:57.611Z,61.00
2018-08-18T09:40:26.001Z,61.20
2018-08-18T09:42:53.488Z,59.70
2018-08-18T09:45:21.077Z,58.90
2018-08-18T09:47:48.604Z,58.10
2018-08-18T09:50:16.213Z,58.50
2018-08-18T09:52:43.774Z,56.20
2018-08-18T09:55:11.395Z,57.50
2018-08-18T09:57:39.035Z,57.60
2018-08-18T10:00:11.796Z,57.00
2018-08-18T10:02:39.331Z,57.00
2018-08-18T10:05:06.852Z,55.60
2018-08-18T10:07:35.094Z,55.10
2018-08-18T10:13:22.411Z,51.30
2018-08-18T10:15:49.878Z,53.10
2018-08-18T10:18:17.293Z,52.50
2018-08-18T10:20:50.644Z,53.00
2018-08-18T10:23:18.474Z,53.40
2018-08-18T10:25:46.184Z,51.60
2018-08-18T10:28:13.614Z,51.70
2018-08-18T10:30:41.081Z,50.00
2018-08-18T10:33:08.595Z,50.60
2018-08-18T10:35:36.058Z,50.60
2018-08-18T10:38:04.889Z,49.30
2018-08-18T10:45:59.315Z,48.60
2018-08-18T10:48:26.901Z,49.50
2018-08-18T10:51:15.758Z,47.50
2018-08-18T10:53:43.335Z,47.30
2018-08-18T10:56:10.891Z,49.60
2018-08-18T10:58:50.090Z,49.70
2018-08-18T11:01:17.654Z,49.20
2018-08-18T11:03:45.041Z,48.70
2018-08-18T11:06:13.848Z,48.90
2018-08-18T11:08:41.350Z,47.70
2018-08-18T11:11:14.882Z,46.40
2018-08-18T11:13:42.274Z,45.80
2018-08-18T11:16:10.741Z,45.30
2018-08-18T11:18:38.175Z,44.40
2018-08-18T11:21:05.551Z,44.90
2018-08-18T11:23:49.257Z,44.00
2018-08-18T11:26:16.691Z,43.50
2018-08-18T11:28:44.308Z,43.40
2018-08-18T11:31:11.723Z,44.00
2018-08-18T11:33:40.649Z,44.40
2018-08-18T11:36:09.085Z,43.60
2018-08-18T11:38:36.627Z,42.70
2018-08-18T11:41:05.086Z,43.80
2018-08-18T11:43:37.780Z,44.70
2018-08-18T11:46:11.222Z,45.90
2018-08-18T11:48:38.964Z,46.50
2018-08-18T11:51:06.601Z,45.80
2018-08-18T12:06:47.387Z,45.10
2018-08-18T12:09:16.887Z,44.30
2018-08-18T12:11:44.459Z,43.20
2018-08-18T12:14:11.929Z,43.60
2018-08-18T12:16:39.915Z,43.20
2018-08-18T12:19:10.936Z,43.30
2018-08-18T12:21:45.915Z,42.60
2018-08-18T12:24:15.619Z,42.30
2018-08-18T12:27:15.435Z,42.20
2018-08-18T12:29:43.263Z,41.20
2018-08-18T12:32:15.556Z,41.30
2018-08-18T12:34:43.065Z,41.80
2018-08-18T12:37:12.457Z,40.90
2018-08-18T12:39:39.920Z,41.10
2018-08-18T12:42:07.451Z,41.00
2018-08-18T12:44:34.922Z,40.30
2018-08-18T12:47:02.882Z,40.60
2018-08-18T12:49:31.084Z,41.30
2018-08-18T12:51:58.562Z,40.30
2018-08-18T12:54:26.012Z,41.00
2018-08-18T12:56:53.420Z,41.20
2018-08-18T12:59:20.904Z,41.80
2018-08-18T13:02:09.456Z,41.00
2018-08-18T13:04:37.504Z,41.30
2018-08-18T13:07:05.024Z,42.00
2018-08-18T13:09:32.509Z,42.40
2018-08-18T13:12:01.231Z,42.00
2018-08-18T13:14:30.576Z,40.90
2018-08-18T13:16:58.064Z,41.60
2018-08-18T13:19:27.550Z,41.60
2018-08-18T13:21:54.971Z,41.50
2018-08-18T13:24:25.567Z,40.90
2018-08-18T13:26:53.127Z,40.80
2018-08-18T13:29:20.631Z,40.90
2018-08-18T13:31:48.108Z,40.40
2018-08-18T13:34:16.718Z,40.40
2018-08-18T13:36:45.126Z,40.60
2018-08-18T13:39:14.013Z,41.20
2018-08-18T13:41:42.606Z,41.20
2018-08-18T13:44:10.073Z,41.80
2018-08-18T13:46:44.054Z,42.40
2018-08-18T13:49:13.975Z,41.40
2018-08-18T13:51:41.516Z,42.70
2018-08-18T13:54:09.027Z,42.40
2018-08-18T13:56:36.451Z,42.50
2018-08-18T13:59:04.023Z,42.00
2018-08-18T14:01:35.029Z,41.40
2018-08-18T14:04:03.012Z,42.10
2018-08-18T14:06:37.098Z,40.90
2018-08-18T14:09:05.652Z,41.00
2018-08-18T14:11:33.086Z,40.80
2018-08-18T14:14:00.929Z,39.50
2018-08-18T14:16:29.170Z,40.10
2018-08-18T14:18:56.846Z,39.00
2018-08-18T14:21:24.269Z,39.90
2018-08-18T14:23:51.787Z,40.00
2018-08-18T14:26:19.297Z,41.00
2018-08-18T14:28:47.117Z,41.00
2018-08-18T14:31:15.127Z,40.80
2018-08-18T14:33:42.791Z,40.00
2018-08-18T14:36:11.163Z,39.90
2018-08-18T14:38:39.247Z,39.40
2018-08-18T14:41:06.858Z,40.10
2018-08-18T14:43:37.163Z,40.40
2018-08-18T14:46:06.091Z,40.20
2018-08-18T14:48:33.478Z,40.00
2018-08-18T14:51:00.950Z,40.60
2018-08-18T14:53:28.464Z,40.40
2018-08-18T14:55:55.848Z,39.80
2018-08-18T14:58:28.915Z,40.20
2018-08-18T15:01:14.310Z,39.80
2018-08-18T15:03:42.206Z,39.60
2018-08-18T15:06:10.428Z,39.50
2018-08-18T15:08:37.940Z,38.70
2018-08-18T15:11:06.760Z,38.30
2018-08-18T15:13:34.384Z,39.70
2018-08-18T15:16:01.927Z,38.90
2018-08-18T15:18:29.853Z,38.00
2018-08-18T15:20:57.443Z,38.50
2018-08-18T15:23:24.908Z,37.90
2018-08-18T15:25:52.402Z,37.00
2018-08-18T15:28:20.657Z,37.00
2018-08-18T15:30:53.503Z,37.40
2018-08-18T15:33:24.293Z,36.00
2018-08-18T15:35:51.760Z,36.80
2018-08-18T15:38:34.138Z,36.70
2018-08-18T15:41:01.730Z,37.00
2018-08-18T15:43:29.760Z,37.80
2018-08-18T15:46:00.203Z,37.60
2018-08-18T15:48:27.687Z,38.00
2018-08-18T15:50:55.256Z,37.80
2018-08-18T15:54:00.942Z,37.20
2018-08-18T15:56:29.613Z,36.60
2018-08-18T15:58:57.763Z,35.50
2018-08-18T16:01:26.383Z,36.40
2018-08-18T16:03:54.443Z,36.00
2018-08-18T16:06:22.051Z,37.00
2018-08-18T16:08:49.851Z,36.20
2018-08-18T16:11:17.203Z,37.20
2018-08-18T16:13:44.967Z,35.50
2018-08-18T16:16:12.558Z,37.30
2018-08-18T16:18:39.968Z,37.70
2018-08-18T16:21:23.111Z,37.50
2018-08-18T16:23:50.805Z,39.20
2018-08-18T16:26:30.622Z,39.10
2018-08-18T16:29:00.299Z,40.20
2018-08-18T16:31:28.411Z,39.90
2018-08-18T16:33:56.888Z,38.90
2018-08-18T16:36:26.410Z,39.50
2018-08-18T16:39:00.626Z,38.80
2018-08-18T16:41:32.843Z,39.20
2018-08-18T16:44:02.734Z,40.30
2018-08-18T16:46:31.266Z,39.90
2018-08-18T16:48:58.704Z,41.00
2018-08-18T16:51:26.546Z,40.50
2018-08-18T16:53:54.095Z,40.40
2018-08-18T16:56:28.767Z,40.20
2018-08-18T16:58:58.850Z,41.40
2018-08-18T17:01:26.550Z,40.60
2018-08-18T17:03:54.420Z,40.80
2018-08-18T17:06:24.968Z,39.80
2018-08-18T17:08:52.649Z,40.00
2018-08-18T17:11:20.094Z,40.40
2018-08-18T17:13:54.864Z,40.20
2018-08-18T17:16:22.364Z,41.50
2018-08-18T17:18:49.899Z,41.20
2018-08-18T17:21:17.323Z,41.70
2018-08-18T17:23:44.874Z,41.60
2018-08-18T17:26:14.656Z,42.70
2018-08-18T17:28:42.046Z,43.20
2018-08-18T17:31:09.504Z,44.10
2018-08-18T17:33:37.131Z,45.80
2018-08-18T17:36:04.559Z,44.00
2018-08-18T17:38:32.042Z,45.40
2018-08-18T17:40:59.635Z,48.60
2018-08-18T17:43:27.158Z,47.40
2018-08-18T17:45:56.694Z,48.20
2018-08-18T17:48:25.443Z,49.40
2018-08-18T17:50:53.474Z,46.80
2018-08-18T17:53:20.937Z,49.70
2018-08-18T17:55:54.078Z,49.50
2018-08-18T17:58:21.562Z,50.40
2018-08-18T18:00:49.043Z,47.10
2018-08-18T18:03:16.509Z,49.40
2018-08-18T18:05:43.959Z,48.50
2018-08-18T18:08:11.442Z,49.50
2018-08-18T18:10:39.130Z,47.70
2018-08-18T18:13:14.686Z,51.50
2018-08-18T18:15:42.739Z,51.80
2018-08-18T18:18:13.638Z,51.80
2018-08-18T18:20:42.362Z,51.10
2018-08-18T18:23:11.181Z,49.20
2018-08-18T18:25:38.834Z,50.10
2018-08-18T18:28:06.457Z,49.90
2018-08-18T18:30:33.856Z,50.30
2018-08-18T18:33:01.323Z,50.40
2018-08-18T18:35:29.396Z,49.60
2018-08-18T18:37:58.465Z,50.40
2018-08-18T18:40:26.311Z,50.70
2018-08-18T18:42:53.779Z,51.10
2018-08-18T18:45:23.305Z,52.40
2018-08-18T18:47:50.708Z,51.30
2018-08-18T18:50:18.766Z,51.60
2018-08-18T18:52:46.886Z,52.50
2018-08-18T18:55:15.006Z,52.60
2018-08-18T18:58:00.605Z,51.60
2018-08-18T19:00:28.843Z,52.00
2018-08-18T19:02:56.622Z,51.50
2018-08-18T19:05:25.146Z,51.20
2018-08-18T19:08:03.904Z,52.20
2018-08-18T19:10:31.504Z,53.50
2018-08-18T19:12:59.038Z,53.90
2018-08-18T19:15:27.764Z,52.80
2018-08-18T19:17:55.484Z,50.30
2018-08-18T19:20:25.784Z,51.00
2018-08-18T19:23:28.515Z,54.30
2018-08-18T19:25:56.054Z,54.00
2018-08-18T19:28:23.569Z,54.10
2018-08-18T19:30:50.991Z,55.40
2018-08-18T19:33:18.870Z,54.60
2018-08-18T19:35:50.371Z,55.70
2018-08-18T19:38:18.812Z,56.10
2018-08-18T19:40:47.470Z,56.70
2018-08-18T19:43:17.006Z,56.60
2018-08-18T19:45:45.008Z,56.70
2018-08-18T19:48:15.178Z,57.30
2018-08-18T19:50:52.519Z,58.40
2018-08-18T19:53:28.845Z,60.00
2018-08-18T19:55:57.548Z,57.20
2018-08-18T19:58:25.746Z,57.20
2018-08-18T20:00:53.711Z,57.60
2018-08-18T20:03:21.769Z,59.40
2018-08-18T20:05:49.410Z,59.80
2018-08-18T20:08:20.062Z,62.20
2018-08-18T20:10:53.159Z,60.30
2018-08-18T20:13:21.535Z,60.20
2018-08-18T20:15:51.116Z,61.00
2018-08-18T20:18:18.652Z,58.70
2018-08-18T20:20:46.524Z,57.30
2018-08-18T20:23:16.412Z,58.30
2018-08-18T20:25:44.854Z,57.90
2018-08-18T20:28:12.392Z,56.90
2018-08-18T20:30:39.847Z,58.00
2018-08-18T20:33:07.332Z,57.80
2018-08-18T20:35:34.742Z,58.90
2018-08-18T20:38:02.214Z,58.20
2018-08-18T20:40:29.767Z,59.50
2018-08-18T21:01:29.358Z,58.00
2018-08-18T21:04:21.765Z,57.50
2018-08-18T21:06:49.684Z,59.50
2018-08-18T21:09:27.422Z,59.30
2018-08-18T21:11:55.004Z,59.00
2018-08-18T21:14:53.016Z,60.00
2018-08-18T21:17:21.215Z,59.90
2018-08-18T21:19:50.244Z,59.30
2018-08-18T21:22:17.832Z,58.10
2018-08-18T21:24:45.386Z,56.70
2018-08-18T21:27:12.945Z,57.80
2018-08-18T21:29:41.017Z,57.60
2018-08-18T21:32:08.467Z,57.00
2018-08-18T21:34:43.625Z,56.20
2018-08-18T21:37:11.023Z,56.40
2018-08-18T21:39:38.431Z,56.00
2018-08-18T21:42:05.904Z,54.80
2018-08-18T21:44:33.458Z,54.10
2018-08-18T21:47:00.924Z,52.80
2018-08-18T21:49:30.049Z,54.20
2018-08-18T21:51:57.564Z,53.50
2018-08-18T21:54:30.791Z,54.10
2018-08-18T21:57:01.876Z,53.80
2018-08-18T21:59:47.240Z,55.20
2018-08-18T22:02:14.869Z,55.60
2018-08-18T22:04:42.443Z,54.70
2018-08-18T22:07:32.295Z,54.50
2018-08-18T22:10:16.390Z,54.80
2018-08-18T22:12:43.993Z,55.40
2018-08-18T22:15:17.344Z,56.50
2018-08-18T22:17:58.462Z,57.10
2018-08-18T22:20:36.038Z,58.10
2018-08-18T22:23:06.071Z,56.40
2018-08-18T22:25:34.137Z,57.50
2018-08-18T22:28:01.660Z,55.60
2018-08-18T22:30:29.260Z,56.10
2018-08-18T22:33:06.655Z,56.20
2018-08-18T22:35:34.353Z,55.10
2018-08-18T22:40:55.238Z,56.70
2018-08-18T22:43:32.565Z,56.90
2018-08-18T22:46:00.020Z,57.60
2018-08-18T22:48:48.182Z,57.50
2018-08-18T22:51:15.784Z,57.10
2018-08-18T22:56:37.128Z,56.30
2018-08-18T23:01:57.251Z,56.20
2018-08-18T23:04:29.016Z,57.80
2018-08-18T23:06:57.157Z,58.40
2018-08-18T23:09:41.095Z,58.30
2018-08-18T23:12:08.549Z,59.20
2018-08-18T23:14:37.325Z,58.50
2018-08-18T23:17:13.056Z,58.90
2018-08-18T23:19:40.672Z,59.60
2018-08-18T23:22:19.476Z,59.00
2018-08-18T23:24:46.956Z,59.10
